createdAt,value
2023-02-19T00:01:55.094Z,96480.16
2023-02-19T00:04:23.795Z,96476.16
2023-02-19T00:06:52.075Z,96481.81
2023-02-19T00:09:20.757Z,96475.31
2023-02-19T00:11:48.995Z,96465.50
2023-02-19T00:14:20.598Z,96469.84
2023-02-19T00:16:49.000Z,96470.31
2023-02-19T00:19:18.286Z,96460.84
2023-02-19T00:21:46.240Z,96473.91
2023-02-19T00:24:15.454Z,96474.44
2023-02-19T00:26:43.895Z,96476.97
2023-02-19T00:29:14.687Z,96484.38
2023-02-19T00:31:44.974Z,96472.81
2023-02-19T00:34:14.053Z,96485.47
2023-02-19T00:36:43.059Z,96476.97
2023-02-19T00:39:14.134Z,96475.53
2023-02-19T00:41:42.083Z,96485.94
2023-02-19T00:44:11.611Z,96482.03
2023-02-19T00:46:41.473Z,96477.13
2023-02-19T00:49:15.766Z,96468.44
2023-02-19T00:51:43.663Z,96482.63
2023-02-19T00:54:12.537Z,96473.06
2023-02-19T00:56:40.571Z,96487.94
2023-02-19T00:59:08.484Z,96481.19
2023-02-19T01:01:36.462Z,96474.00
2023-02-19T01:04:06.555Z,96468.34
2023-02-19T01:06:36.281Z,96469.16
2023-02-19T01:09:04.966Z,96463.16
2023-02-19T01:11:33.197Z,96461.72
2023-02-19T01:14:02.529Z,96463.25
2023-02-19T01:16:31.057Z,96438.47
2023-02-19T01:18:59.576Z,96447.31
2023-02-19T01:21:29.501Z,96444.47
2023-02-19T01:23:59.455Z,96458.75
2023-02-19T01:26:29.661Z,96463.03
2023-02-19T01:28:57.925Z,96449.56
2023-02-19T01:31:26.224Z,96443.44
2023-02-19T01:33:55.543Z,96445.47
2023-02-19T01:36:23.611Z,96440.44
2023-02-19T01:38:51.587Z,96438.53
2023-02-19T01:41:22.288Z,96440.19
2023-02-19T01:43:58.667Z,96432.19
2023-02-19T01:46:28.022Z,96427.44
2023-02-19T01:48:58.118Z,96432.72
2023-02-19T01:51:26.048Z,96427.63
2023-02-19T01:53:57.136Z,96422.41
2023-02-19T01:56:27.464Z,96430.84
2023-02-19T01:58:55.418Z,96432.91
2023-02-19T02:01:23.378Z,96431.09
2023-02-19T02:03:52.107Z,96440.41
2023-02-19T02:06:23.281Z,96430.28
2023-02-19T02:09:10.700Z,96420.91
2023-02-19T02:11:42.224Z,96419.53
2023-02-19T02:14:10.133Z,96414.16
2023-02-19T02:16:48.137Z,96409.63
2023-02-19T02:19:40.878Z,96420.44
2023-02-19T02:22:12.710Z,96407.41
2023-02-19T02:25:34.556Z,96409.63
2023-02-19T02:28:14.779Z,96402.31
2023-02-19T02:30:45.292Z,96401.38
2023-02-19T02:33:22.631Z,96392.38
2023-02-19T02:35:53.089Z,96379.81
2023-02-19T02:38:25.192Z,96398.94
2023-02-19T02:40:53.664Z,96378.66
2023-02-19T02:43:21.648Z,96386.81
2023-02-19T02:45:51.006Z,96372.41
2023-02-19T02:48:24.936Z,96371.41
2023-02-19T02:50:56.272Z,96377.34
2023-02-19T02:53:45.910Z,96371.00
2023-02-19T02:56:15.414Z,96379.44
2023-02-19T02:58:44.137Z,96370.53
2023-02-19T03:01:36.010Z,96368.78
2023-02-19T03:04:07.137Z,96366.59
2023-02-19T03:06:36.744Z,96364.59
2023-02-19T03:09:11.286Z,96370.63
2023-02-19T03:11:59.422Z,96361.16
2023-02-19T03:14:50.239Z,96359.31
2023-02-19T03:17:41.806Z,96358.22
2023-02-19T03:20:12.727Z,96352.00
2023-02-19T03:22:41.938Z,96350.38
2023-02-19T03:25:30.739Z,96336.19
2023-02-19T03:28:00.497Z,96350.94
2023-02-19T03:30:31.423Z,96319.63
2023-02-19T03:33:02.571Z,96334.75
2023-02-19T03:35:33.015Z,96321.75
2023-02-19T03:38:05.979Z,96336.94
2023-02-19T03:40:39.599Z,96341.69
2023-02-19T03:43:15.894Z,96342.22
2023-02-19T03:45:49.158Z,96325.88
2023-02-19T03:48:26.116Z,96332.03
2023-02-19T03:51:02.306Z,96326.88
2023-02-19T03:53:33.836Z,96338.59
2023-02-19T03:56:07.863Z,96322.69
2023-02-19T03:58:40.693Z,96322.41
2023-02-19T04:01:12.064Z,96293.72
2023-02-19T04:03:45.176Z,96301.00
2023-02-19T04:06:15.834Z,96299.81
2023-02-19T04:08:46.461Z,96287.53
2023-02-19T04:11:16.083Z,96302.13
2023-02-19T04:13:47.225Z,96297.09
2023-02-19T04:16:20.077Z,96292.34
2023-02-19T04:18:52.682Z,96291.09
2023-02-19T04:21:21.742Z,96295.91
2023-02-19T04:23:49.710Z,96294.91
2023-02-19T04:26:18.365Z,96289.44
2023-02-19T04:28:46.274Z,96278.34
2023-02-19T04:31:14.788Z,96282.81
2023-02-19T04:33:42.928Z,96280.56
2023-02-19T04:36:12.678Z,96287.72
2023-02-19T04:38:40.650Z,96286.00
2023-02-19T04:41:09.787Z,96276.19
2023-02-19T04:43:37.950Z,96266.16
2023-02-19T04:46:06.221Z,96265.88
2023-02-19T04:48:34.193Z,96272.09
2023-02-19T04:51:06.519Z,96268.53
2023-02-19T04:53:36.360Z,96260.78
2023-02-19T04:56:08.872Z,96259.88
2023-02-19T04:58:37.201Z,96269.78
2023-02-19T05:01:05.688Z,96248.81
2023-02-19T05:03:35.140Z,96250.81
2023-02-19T05:06:04.798Z,96240.84
2023-02-19T05:08:32.771Z,96240.13
2023-02-19T05:11:02.739Z,96238.66
2023-02-19T05:13:31.071Z,96233.22
2023-02-19T05:16:00.632Z,96246.44
2023-02-19T05:18:28.897Z,96223.94
2023-02-19T05:20:58.613Z,96224.13
2023-02-19T05:23:27.091Z,96206.19
2023-02-19T05:25:55.206Z,96191.91
2023-02-19T05:28:28.774Z,96186.09
2023-02-19T05:30:57.792Z,96223.66
2023-02-19T05:33:27.058Z,96209.72
2023-02-19T05:35:56.504Z,96206.34
2023-02-19T05:38:24.845Z,96207.28
2023-02-19T05:40:52.842Z,96218.72
2023-02-19T05:43:20.745Z,96198.50
2023-02-19T05:45:50.060Z,96189.31
2023-02-19T05:48:17.979Z,96170.78
2023-02-19T05:50:45.888Z,96166.56
2023-02-19T05:53:13.809Z,96160.50
2023-02-19T05:55:41.779Z,96185.38
2023-02-19T05:58:09.768Z,96188.84
2023-02-19T06:00:37.739Z,96195.69
2023-02-19T06:03:07.135Z,96195.31
2023-02-19T06:05:35.360Z,96208.81
2023-02-19T06:08:03.385Z,96213.28
2023-02-19T06:10:31.341Z,96205.81
2023-02-19T06:12:59.281Z,96218.84
2023-02-19T06:15:27.256Z,96227.13
2023-02-19T06:17:55.177Z,96205.66
2023-02-19T06:20:26.043Z,96224.75
2023-02-19T06:22:54.268Z,96234.13
2023-02-19T06:25:22.227Z,96239.69
2023-02-19T06:27:50.167Z,96237.78
2023-02-19T06:30:18.210Z,96215.66
2023-02-19T06:32:46.213Z,96227.41
2023-02-19T06:35:14.164Z,96233.84
2023-02-19T06:37:43.448Z,96237.66
2023-02-19T06:40:11.852Z,96240.41
2023-02-19T06:42:39.750Z,96237.66
2023-02-19T06:45:08.397Z,96230.03
2023-02-19T06:47:36.329Z,96243.59
2023-02-19T06:50:04.327Z,96240.88
2023-02-19T06:52:32.211Z,96236.66
2023-02-19T06:55:01.518Z,96238.44
2023-02-19T06:57:29.744Z,96249.03
2023-02-19T06:59:57.846Z,96240.78
2023-02-19T07:02:26.320Z,96249.97
2023-02-19T07:04:54.252Z,96246.13
2023-02-19T07:07:22.354Z,96248.41
2023-02-19T07:09:50.275Z,96255.44
2023-02-19T07:12:19.539Z,96232.94
2023-02-19T07:14:48.109Z,96243.75
2023-02-19T07:17:16.035Z,96236.22
2023-02-19T07:19:43.963Z,96224.81
2023-02-19T07:22:11.982Z,96253.38
2023-02-19T07:24:39.909Z,96247.28
2023-02-19T07:27:07.886Z,96244.13
2023-02-19T07:29:37.203Z,96242.56
2023-02-19T07:32:05.685Z,96254.03
2023-02-19T07:34:33.621Z,96242.53
2023-02-19T07:37:01.546Z,96253.47
2023-02-19T07:39:29.567Z,96252.16
2023-02-19T07:41:57.466Z,96261.84
2023-02-19T07:44:25.359Z,96279.03
2023-02-19T07:46:54.773Z,96262.47
2023-02-19T07:49:22.734Z,96266.56
2023-02-19T07:51:50.639Z,96268.41
2023-02-19T07:54:18.569Z,96266.94
2023-02-19T07:56:46.515Z,96282.41
2023-02-19T07:59:15.877Z,96276.13
2023-02-19T08:02:01.525Z,96271.66
2023-02-19T08:04:30.935Z,96282.69
2023-02-19T08:06:58.890Z,96284.94
2023-02-19T08:09:27.001Z,96282.31
2023-02-19T08:12:12.123Z,96291.50
2023-02-19T08:14:40.060Z,96290.31
2023-02-19T08:17:08.014Z,96301.97
2023-02-19T08:19:37.351Z,96317.38
2023-02-19T08:22:05.772Z,96298.63
2023-02-19T08:24:33.990Z,96309.44
2023-02-19T08:27:01.962Z,96304.28
2023-02-19T08:29:29.925Z,96327.66
2023-02-19T08:31:57.895Z,96339.88
2023-02-19T08:34:25.831Z,96330.97
2023-02-19T08:36:55.176Z,96335.31
2023-02-19T08:39:23.189Z,96341.88
2023-02-19T08:41:51.227Z,96332.56
2023-02-19T08:44:19.336Z,96348.06
2023-02-19T08:46:47.237Z,96351.91
2023-02-19T08:49:16.546Z,96354.53
2023-02-19T08:51:44.484Z,96355.88
2023-02-19T08:54:13.788Z,96362.28
2023-02-19T08:56:41.923Z,96382.56
2023-02-19T08:59:10.018Z,96389.13
2023-02-19T09:01:37.998Z,96389.84
2023-02-19T09:04:06.244Z,96397.94
2023-02-19T09:06:34.185Z,96400.50
2023-02-19T09:09:02.114Z,96404.59
2023-02-19T09:11:31.467Z,96407.13
2023-02-19T09:13:59.374Z,96403.69
2023-02-19T09:16:27.398Z,96405.03
2023-02-19T09:18:58.115Z,96409.03
2023-02-19T09:21:26.116Z,96399.31
2023-02-19T09:23:54.060Z,96405.97
2023-02-19T09:26:22.041Z,96393.41
2023-02-19T09:28:51.354Z,96406.63
2023-02-19T09:31:19.341Z,96400.22
2023-02-19T09:33:48.735Z,96404.91
2023-02-19T09:36:18.672Z,96404.50
2023-02-19T09:38:46.914Z,96402.97
2023-02-19T09:41:19.411Z,96408.38
2023-02-19T09:43:47.586Z,96408.38
2023-02-19T09:46:25.170Z,96404.47
2023-02-19T09:48:54.801Z,96391.22
2023-02-19T09:51:23.322Z,96412.97
2023-02-19T09:53:53.327Z,96408.69
2023-02-19T09:56:21.318Z,96404.66
2023-02-19T09:58:50.359Z,96415.03
2023-02-19T10:01:20.404Z,96425.03
2023-02-19T10:03:49.563Z,96414.25
2023-02-19T10:06:20.598Z,96423.41
2023-02-19T10:08:50.748Z,96411.19
2023-02-19T10:11:19.678Z,96405.19
2023-02-19T10:13:49.891Z,96422.56
2023-02-19T10:16:22.819Z,96426.75
2023-02-19T10:18:50.773Z,96439.16
2023-02-19T10:21:20.973Z,96441.31
2023-02-19T10:23:52.380Z,96446.69
2023-02-19T10:26:20.510Z,96453.81
2023-02-19T10:28:48.459Z,96439.44
2023-02-19T10:31:20.783Z,96437.06
2023-02-19T10:33:52.385Z,96406.81
2023-02-19T10:36:29.766Z,96402.84
2023-02-19T10:38:59.594Z,96417.59
2023-02-19T10:41:28.572Z,96394.19
2023-02-19T10:43:58.375Z,96423.34
2023-02-19T10:46:28.762Z,96426.00
2023-02-19T10:48:59.928Z,96424.47
2023-02-19T10:51:33.451Z,96423.97
2023-02-19T10:54:07.095Z,96412.22
2023-02-19T10:56:35.188Z,96431.13
2023-02-19T10:59:21.678Z,96434.81
2023-02-19T11:01:57.534Z,96443.81
2023-02-19T11:04:27.933Z,96445.16
2023-02-19T11:06:57.451Z,96441.16
2023-02-19T11:09:28.528Z,96432.50
2023-02-19T11:11:57.805Z,96445.63
2023-02-19T11:14:27.078Z,96427.00
2023-02-19T11:16:57.212Z,96444.97
2023-02-19T11:19:37.614Z,96459.88
2023-02-19T11:22:21.465Z,96457.94
2023-02-19T11:24:50.010Z,96457.75
2023-02-19T11:27:20.618Z,96459.59
2023-02-19T11:29:48.656Z,96455.66
2023-02-19T11:32:26.357Z,96453.63
2023-02-19T11:35:15.487Z,96453.59
2023-02-19T11:37:55.088Z,96457.53
2023-02-19T11:40:26.163Z,96442.09
2023-02-19T11:42:57.916Z,96438.38
2023-02-19T11:45:33.936Z,96450.34
2023-02-19T11:48:25.869Z,96461.31
2023-02-19T11:51:02.148Z,96445.25
2023-02-19T11:53:32.107Z,96444.78
2023-02-19T11:56:12.326Z,96449.25
2023-02-19T11:58:53.181Z,96448.53
2023-02-19T12:01:25.366Z,96448.28
2023-02-19T12:04:08.689Z,96447.34
2023-02-19T12:06:45.235Z,96447.13
2023-02-19T12:09:23.656Z,96461.66
2023-02-19T12:12:12.183Z,96452.34
2023-02-19T12:15:00.668Z,96438.03
2023-02-19T12:17:44.576Z,96453.50
2023-02-19T12:20:20.254Z,96446.44
2023-02-19T12:22:54.924Z,96447.47
2023-02-19T12:25:36.078Z,96433.59
2023-02-19T12:28:26.439Z,96435.63
2023-02-19T12:31:08.285Z,96433.75
2023-02-19T12:34:00.787Z,96431.91
2023-02-19T12:36:34.537Z,96412.88
2023-02-19T12:39:08.693Z,96421.69
2023-02-19T12:41:42.375Z,96425.09
2023-02-19T12:44:13.714Z,96429.56
2023-02-19T12:46:44.339Z,96424.19
2023-02-19T12:49:14.800Z,96434.00
2023-02-19T12:51:45.870Z,96432.94
2023-02-19T12:54:19.149Z,96429.69
2023-02-19T12:56:51.543Z,96440.84
2023-02-19T12:59:24.829Z,96424.66
2023-02-19T13:01:58.178Z,96425.81
2023-02-19T13:04:31.946Z,96436.03
2023-02-19T13:07:03.777Z,96425.09
2023-02-19T13:09:35.829Z,96428.88
2023-02-19T13:12:07.428Z,96431.31
2023-02-19T13:14:37.952Z,96442.97
2023-02-19T13:17:14.170Z,96438.09
2023-02-19T13:19:42.170Z,96445.88
2023-02-19T13:22:35.138Z,96461.22
2023-02-19T13:25:05.223Z,96459.47
2023-02-19T13:27:56.636Z,96463.03
2023-02-19T13:30:44.722Z,96450.50
2023-02-19T13:33:23.732Z,96451.97
2023-02-19T13:36:06.085Z,96445.63
2023-02-19T13:38:37.902Z,96450.13
2023-02-19T13:41:07.693Z,96463.03
2023-02-19T13:43:38.876Z,96449.84
2023-02-19T13:46:09.142Z,96461.59
2023-02-19T13:48:38.264Z,96470.88
2023-02-19T13:51:40.215Z,96471.13
2023-02-19T13:54:27.493Z,96478.28
2023-02-19T13:57:30.249Z,96485.66
2023-02-19T13:59:58.819Z,96491.09
2023-02-19T14:02:31.075Z,96483.53
2023-02-19T14:05:01.226Z,96489.16
2023-02-19T14:07:51.342Z,96485.44
2023-02-19T14:11:02.311Z,96481.78
2023-02-19T14:13:58.098Z,96487.34
2023-02-19T14:16:35.062Z,96485.75
2023-02-19T14:19:03.127Z,96494.88
2023-02-19T14:21:36.951Z,96476.31
2023-02-19T14:24:05.476Z,96475.00
2023-02-19T14:26:35.861Z,96499.19
2023-02-19T14:29:08.138Z,96508.97
2023-02-19T14:31:38.140Z,96511.97
2023-02-19T14:34:07.756Z,96513.69
2023-02-19T14:36:44.070Z,96505.84
2023-02-19T14:39:15.197Z,96498.66
2023-02-19T14:41:45.496Z,96502.97
2023-02-19T14:44:19.612Z,96505.13
2023-02-19T14:46:52.948Z,96500.66
2023-02-19T14:49:24.608Z,96526.28
2023-02-19T14:51:54.587Z,96517.19
2023-02-19T14:54:33.560Z,96535.19
2023-02-19T14:57:02.749Z,96534.59
2023-02-19T14:59:32.059Z,96529.78
2023-02-19T15:02:02.369Z,96518.34
2023-02-19T15:04:32.474Z,96540.13
2023-02-19T15:07:03.610Z,96525.25
2023-02-19T15:09:34.623Z,96533.81
2023-02-19T15:12:04.069Z,96524.69
2023-02-19T15:14:34.235Z,96533.59
2023-02-19T15:17:05.435Z,96530.16
2023-02-19T15:19:36.137Z,96521.94
2023-02-19T15:22:04.633Z,96518.66
2023-02-19T15:24:32.676Z,96525.97
2023-02-19T15:27:00.876Z,96525.41
2023-02-19T15:29:30.153Z,96531.56
2023-02-19T15:32:02.250Z,96536.31
2023-02-19T15:34:31.950Z,96543.06
2023-02-19T15:37:01.852Z,96554.66
2023-02-19T15:39:37.001Z,96558.91
2023-02-19T15:42:06.265Z,96569.75
2023-02-19T15:44:44.385Z,96567.53
2023-02-19T15:47:19.592Z,96577.50
2023-02-19T15:49:52.748Z,96581.38
2023-02-19T15:52:31.443Z,96576.09
2023-02-19T15:55:03.274Z,96588.25
2023-02-19T15:57:33.683Z,96593.53
2023-02-19T16:00:05.473Z,96586.69
2023-02-19T16:02:35.375Z,96586.91
2023-02-19T16:05:03.343Z,96592.19
2023-02-19T16:07:32.969Z,96604.19
2023-02-19T16:10:18.990Z,96608.13
2023-02-19T16:12:56.253Z,96619.38
2023-02-19T16:15:24.167Z,96618.22
2023-02-19T16:17:53.678Z,96625.53
2023-02-19T16:20:24.165Z,96623.78
2023-02-19T16:22:53.188Z,96629.22
2023-02-19T16:25:30.385Z,96621.41
2023-02-19T16:27:58.886Z,96630.94
2023-02-19T16:30:30.544Z,96638.34
2023-02-19T16:33:21.983Z,96624.22
2023-02-19T16:35:52.340Z,96641.97
2023-02-19T16:38:22.234Z,96633.56
2023-02-19T16:41:13.251Z,96641.97
2023-02-19T16:43:43.387Z,96644.06
2023-02-19T16:46:13.130Z,96635.38
2023-02-19T16:48:42.500Z,96641.28
2023-02-19T16:51:10.663Z,96648.00
2023-02-19T16:53:38.766Z,96650.66
2023-02-19T16:56:09.287Z,96659.94
2023-02-19T16:58:39.877Z,96658.13
2023-02-19T17:01:08.231Z,96660.69
2023-02-19T17:03:36.269Z,96675.44
2023-02-19T17:06:06.183Z,96709.59
2023-02-19T17:08:36.992Z,96742.97
2023-02-19T17:11:07.092Z,96754.25
2023-02-19T17:13:35.076Z,96780.97
2023-02-19T17:16:03.099Z,96800.41
2023-02-19T17:18:31.047Z,96785.69
2023-02-19T17:21:02.720Z,96785.03
2023-02-19T17:23:32.152Z,96784.91
2023-02-19T17:26:00.110Z,96781.63
2023-02-19T17:28:28.020Z,96778.78
2023-02-19T17:30:56.181Z,96783.03
2023-02-19T17:33:24.107Z,96789.75
2023-02-19T17:35:52.031Z,96795.88
2023-02-19T17:38:19.921Z,96807.25
2023-02-19T17:40:49.192Z,96802.03
2023-02-19T17:43:17.149Z,96800.28
2023-02-19T17:45:45.108Z,96801.31
2023-02-19T17:48:13.930Z,96808.44
2023-02-19T17:50:42.415Z,96800.97
2023-02-19T17:53:10.386Z,96809.97
2023-02-19T17:55:38.372Z,96822.41
2023-02-19T17:58:07.687Z,96825.53
2023-02-19T18:00:36.619Z,96817.97
2023-02-19T18:03:04.780Z,96830.78
2023-02-19T18:05:32.696Z,96847.53
2023-02-19T18:08:00.791Z,96860.84
2023-02-19T18:10:30.459Z,96854.84
2023-02-19T18:12:58.454Z,96852.00
2023-02-19T18:15:27.933Z,96858.16
2023-02-19T18:17:56.025Z,96855.53
2023-02-19T18:20:26.253Z,96858.56
2023-02-19T18:22:54.514Z,96860.25
2023-02-19T18:25:23.259Z,96856.50
2023-02-19T18:27:51.545Z,96879.38
2023-02-19T18:30:20.809Z,96876.47
2023-02-19T18:32:50.513Z,96873.19
2023-02-19T18:35:19.337Z,96880.28
2023-02-19T18:37:51.050Z,96883.03
2023-02-19T18:40:19.457Z,96888.00
2023-02-19T18:42:47.433Z,96894.97
2023-02-19T18:45:15.627Z,96894.13
2023-02-19T18:47:43.562Z,96884.75
2023-02-19T18:50:13.933Z,96881.38
2023-02-19T18:52:41.846Z,96880.28
2023-02-19T18:55:11.687Z,96896.47
2023-02-19T18:57:39.603Z,96884.69
2023-02-19T19:00:08.888Z,96880.97
2023-02-19T19:02:48.644Z,96881.03
2023-02-19T19:05:22.588Z,96872.94
2023-02-19T19:07:51.058Z,96900.19
2023-02-19T19:10:19.647Z,96908.13
2023-02-19T19:12:47.923Z,96900.53
2023-02-19T19:15:18.170Z,96902.28
2023-02-19T19:17:46.588Z,96903.38
2023-02-19T19:20:15.105Z,96909.03
2023-02-19T19:22:44.516Z,96905.69
2023-02-19T19:25:12.494Z,96911.16
2023-02-19T19:27:40.417Z,96905.09
2023-02-19T19:30:09.425Z,96911.81
2023-02-19T19:32:38.667Z,96922.19
2023-02-19T19:35:06.854Z,96917.41
2023-02-19T19:37:34.840Z,96918.56
2023-02-19T19:40:05.050Z,96930.66
2023-02-19T19:42:33.033Z,96941.50
2023-02-19T19:45:01.026Z,96936.88
2023-02-19T19:47:29.069Z,96937.03
2023-02-19T19:49:57.016Z,96928.28
2023-02-19T19:52:24.939Z,96934.81
2023-02-19T19:54:54.097Z,96930.34
2023-02-19T19:57:23.479Z,96940.78
2023-02-19T19:59:52.116Z,96937.81
2023-02-19T20:02:20.181Z,96942.06
2023-02-19T20:04:48.114Z,96944.34
2023-02-19T20:07:16.554Z,96937.19
2023-02-19T20:09:48.396Z,96957.59
2023-02-19T20:12:16.731Z,96957.44
2023-02-19T20:14:46.903Z,96964.88
2023-02-19T20:17:14.895Z,96955.78
2023-02-19T20:19:43.054Z,96960.03
2023-02-19T20:22:12.256Z,96966.63
2023-02-19T20:24:40.245Z,96957.94
2023-02-19T20:27:08.305Z,96954.38
2023-02-19T20:29:36.374Z,96953.41
2023-02-19T20:32:06.099Z,96947.53
2023-02-19T20:34:34.061Z,96952.31
2023-02-19T20:37:02.003Z,96955.78
2023-02-19T20:39:29.988Z,96964.22
2023-02-19T20:41:58.867Z,96974.97
2023-02-19T20:44:27.773Z,96973.53
2023-02-19T20:46:56.618Z,96967.59
2023-02-19T20:49:27.558Z,96976.69
2023-02-19T20:51:58.107Z,96977.50
2023-02-19T20:54:27.558Z,96975.72
2023-02-19T20:56:56.944Z,96984.91
2023-02-19T20:59:27.226Z,96983.38
2023-02-19T21:01:55.305Z,96986.16
2023-02-19T21:04:23.303Z,96990.63
2023-02-19T21:06:52.663Z,96991.56
2023-02-19T21:09:20.759Z,96999.22
2023-02-19T21:11:49.088Z,96982.72
2023-02-19T21:14:17.650Z,96992.00
2023-02-19T21:16:45.819Z,96985.44
2023-02-19T21:19:13.845Z,96975.34
2023-02-19T21:21:41.746Z,96982.56
2023-02-19T21:24:14.158Z,96986.63
2023-02-19T21:26:42.976Z,96977.75
2023-02-19T21:29:11.960Z,96982.78
2023-02-19T21:31:41.802Z,96982.72
2023-02-19T21:34:11.130Z,96970.00
2023-02-19T21:36:39.399Z,96969.91
2023-02-19T21:39:08.861Z,96973.91
2023-02-19T21:41:38.387Z,96978.16
2023-02-19T21:44:06.591Z,96975.47
2023-02-19T21:46:34.581Z,96980.56
2023-02-19T21:49:03.729Z,96977.53
2023-02-19T21:51:33.211Z,96979.06
2023-02-19T21:54:01.342Z,96990.69
2023-02-19T21:56:31.246Z,96987.97
2023-02-19T21:59:00.661Z,96985.84
2023-02-19T22:01:29.823Z,96992.41
2023-02-19T22:03:57.865Z,96997.81
2023-02-19T22:06:29.117Z,96988.91
2023-02-19T22:08:57.258Z,97000.84
2023-02-19T22:11:25.269Z,97002.59
2023-02-19T22:13:53.263Z,97005.34
2023-02-19T22:16:22.816Z,97005.63
2023-02-19T22:18:51.861Z,97009.19
2023-02-19T22:21:20.527Z,97015.75
2023-02-19T22:23:49.662Z,97017.38
2023-02-19T22:26:21.352Z,97018.09
2023-02-19T22:28:49.395Z,97016.72
2023-02-19T22:31:17.769Z,97008.72
2023-02-19T22:33:47.159Z,97013.97
2023-02-19T22:36:16.752Z,97006.19
2023-02-19T22:38:44.659Z,97002.28
2023-02-19T22:41:13.220Z,97002.19
2023-02-19T22:43:41.145Z,96996.03
2023-02-19T22:46:11.919Z,96996.84
2023-02-19T22:48:40.023Z,96998.16
2023-02-19T22:51:13.522Z,97006.88
2023-02-19T22:53:45.172Z,97004.16
2023-02-19T22:56:14.211Z,97015.25
2023-02-19T22:58:42.597Z,97017.53
2023-02-19T23:01:10.982Z,97016.00
2023-02-19T23:03:46.366Z,97020.44
2023-02-19T23:06:16.222Z,97015.22
2023-02-19T23:08:44.660Z,97018.25
2023-02-19T23:11:13.334Z,97012.69
2023-02-19T23:13:42.490Z,97030.13
2023-02-19T23:16:10.895Z,97029.28
2023-02-19T23:18:39.083Z,97033.50
2023-02-19T23:21:07.152Z,97028.47
2023-02-19T23:23:36.476Z,97026.88
2023-02-19T23:26:05.326Z,97019.06
2023-02-19T23:28:33.227Z,97037.59
2023-02-19T23:31:01.263Z,97030.81
2023-02-19T23:33:29.231Z,97036.72
2023-02-19T23:35:57.152Z,97026.44
2023-02-19T23:38:25.042Z,97027.31
2023-02-19T23:40:54.321Z,97034.94
2023-02-19T23:43:22.617Z,97036.78
2023-02-19T23:45:50.612Z,97029.97
2023-02-19T23:48:18.615Z,97029.03
2023-02-19T23:50:46.739Z,97024.59
2023-02-19T23:53:14.694Z,97017.94
2023-02-19T23:55:42.576Z,97025.59
2023-02-19T23:58:12.025Z,97027.19
